createdAt,value
2022-09-30T00:01:27.580Z,99.90
2022-09-30T00:03:57.450Z,99.90
2022-09-30T00:06:26.627Z,99.90
2022-09-30T00:08:54.229Z,99.90
2022-09-30T00:11:25.524Z,99.90
2022-09-30T00:13:58.991Z,99.90
2022-09-30T00:16:32.349Z,99.90
2022-09-30T00:19:09.458Z,99.90
2022-09-30T00:21:38.066Z,99.90
2022-09-30T00:24:06.049Z,99.90
2022-09-30T00:26:34.589Z,99.90
2022-09-30T00:29:05.253Z,99.90
2022-09-30T00:31:35.347Z,99.90
2022-09-30T00:34:07.232Z,99.90
2022-09-30T00:36:37.498Z,99.90
2022-09-30T00:39:06.174Z,99.90
2022-09-30T00:41:34.357Z,99.90
2022-09-30T00:44:01.651Z,99.90
2022-09-30T00:46:38.126Z,99.90
2022-09-30T00:49:21.099Z,99.90
2022-09-30T00:51:52.794Z,99.90
2022-09-30T00:54:24.034Z,99.90
2022-09-30T00:57:00.104Z,99.90
2022-09-30T00:59:33.212Z,99.90
2022-09-30T01:02:01.707Z,99.90
2022-09-30T01:04:32.741Z,99.90
2022-09-30T01:07:01.186Z,99.90
2022-09-30T01:09:29.045Z,99.90
2022-09-30T01:12:01.757Z,99.90
2022-09-30T01:14:31.978Z,99.90
2022-09-30T01:17:09.062Z,99.90
2022-09-30T01:20:11.664Z,99.90
2022-09-30T01:22:46.549Z,99.90
2022-09-30T01:25:54.358Z,99.90
2022-09-30T01:28:48.264Z,99.90
2022-09-30T01:31:41.791Z,99.90
2022-09-30T01:34:17.783Z,99.90
2022-09-30T01:37:02.678Z,99.90
2022-09-30T01:39:42.453Z,99.90
2022-09-30T01:42:18.597Z,99.90
2022-09-30T01:44:54.491Z,99.90
2022-09-30T01:47:26.427Z,99.90
2022-09-30T01:49:59.875Z,99.90
2022-09-30T01:52:35.453Z,99.90
2022-09-30T01:55:08.019Z,99.90
2022-09-30T01:57:44.083Z,99.90
2022-09-30T02:00:13.393Z,99.90
2022-09-30T02:02:49.108Z,99.90
2022-09-30T02:05:22.088Z,99.90
2022-09-30T02:07:55.126Z,99.90
2022-09-30T02:10:30.239Z,99.90
2022-09-30T02:13:03.328Z,99.90
2022-09-30T02:15:39.773Z,99.90
2022-09-30T02:18:20.619Z,99.90
2022-09-30T02:20:57.330Z,99.90
2022-09-30T02:23:29.428Z,99.90
2022-09-30T02:26:11.464Z,99.90
2022-09-30T02:28:42.493Z,99.90
2022-09-30T02:31:12.360Z,99.90
2022-09-30T02:33:47.270Z,99.90
2022-09-30T02:36:21.515Z,99.90
2022-09-30T02:38:59.206Z,99.90
2022-09-30T02:41:28.845Z,99.90
2022-09-30T02:43:56.720Z,99.90
2022-09-30T02:46:31.880Z,99.90
2022-09-30T02:49:18.957Z,99.90
2022-09-30T02:52:07.088Z,99.90
2022-09-30T02:54:42.987Z,99.90
2022-09-30T02:57:20.938Z,99.90
2022-09-30T02:59:51.506Z,99.90
2022-09-30T03:02:18.685Z,99.90
2022-09-30T03:04:53.302Z,99.90
2022-09-30T03:07:24.650Z,99.90
2022-09-30T03:09:56.787Z,99.90
2022-09-30T03:12:37.737Z,99.90
2022-09-30T03:15:41.630Z,99.90
2022-09-30T03:18:49.158Z,99.90
2022-09-30T03:21:35.349Z,99.90
2022-09-30T03:24:26.641Z,99.90
2022-09-30T03:27:09.507Z,99.90
2022-09-30T03:29:47.686Z,99.90
2022-09-30T03:32:32.219Z,99.90
2022-09-30T03:35:09.301Z,99.90
2022-09-30T03:37:48.153Z,99.90
2022-09-30T03:40:24.133Z,99.90
2022-09-30T03:42:57.276Z,99.90
2022-09-30T03:45:31.727Z,99.90
2022-09-30T03:48:05.410Z,99.90
2022-09-30T03:50:34.964Z,99.90
2022-09-30T03:53:04.402Z,99.90
2022-09-30T03:55:33.463Z,99.90
2022-09-30T03:58:03.139Z,99.90
2022-09-30T04:00:32.653Z,99.90
2022-09-30T04:02:59.609Z,99.90
2022-09-30T04:05:26.528Z,99.90
2022-09-30T04:07:53.447Z,99.90
2022-09-30T04:10:21.814Z,99.90
2022-09-30T04:12:48.715Z,99.90
2022-09-30T04:15:15.914Z,99.90
2022-09-30T04:17:43.246Z,99.90
2022-09-30T04:20:10.437Z,99.90
2022-09-30T04:22:37.309Z,99.90
2022-09-30T04:25:05.425Z,99.90
2022-09-30T04:27:33.755Z,99.90
2022-09-30T04:30:00.801Z,99.90
2022-09-30T04:32:28.770Z,99.90
2022-09-30T04:34:55.797Z,99.90
2022-09-30T04:37:23.939Z,99.90
2022-09-30T04:39:51.184Z,99.90
2022-09-30T04:42:18.447Z,99.90
2022-09-30T04:44:48.050Z,99.90
2022-09-30T04:47:15.498Z,99.90
2022-09-30T04:49:42.587Z,99.90
2022-09-30T04:52:09.513Z,99.90
2022-09-30T04:54:36.656Z,99.90
2022-09-30T04:57:06.497Z,99.90
2022-09-30T04:59:33.903Z,99.90
2022-09-30T05:02:02.401Z,99.90
2022-09-30T05:04:32.717Z,99.90
2022-09-30T05:07:00.807Z,99.90
2022-09-30T05:09:27.927Z,99.90
2022-09-30T05:11:54.912Z,99.90
2022-09-30T05:14:22.122Z,99.90
2022-09-30T05:16:49.014Z,99.90
2022-09-30T05:19:17.308Z,99.90
2022-09-30T05:21:44.852Z,99.90
2022-09-30T05:24:11.892Z,99.90
2022-09-30T05:26:40.097Z,99.90
2022-09-30T05:29:07.772Z,99.90
2022-09-30T05:31:34.882Z,99.90
2022-09-30T05:34:02.070Z,99.90
2022-09-30T05:36:30.429Z,99.90
2022-09-30T05:38:57.355Z,99.90
2022-09-30T05:41:24.651Z,99.90
2022-09-30T05:43:59.119Z,99.90
2022-09-30T05:46:26.196Z,99.90
2022-09-30T05:48:54.597Z,99.90
2022-09-30T05:51:22.008Z,99.90
2022-09-30T05:53:51.595Z,99.90
2022-09-30T05:56:18.952Z,99.90
2022-09-30T05:58:47.181Z,99.90
2022-09-30T06:01:15.718Z,99.90
2022-09-30T06:03:43.633Z,99.90
2022-09-30T06:06:18.446Z,99.90
2022-09-30T06:08:47.018Z,99.90
2022-09-30T06:11:18.142Z,99.90
2022-09-30T06:13:50.173Z,99.90
2022-09-30T06:16:18.417Z,99.90
2022-09-30T06:18:45.901Z,99.90
2022-09-30T06:21:15.825Z,99.90
2022-09-30T06:23:43.732Z,99.90
2022-09-30T06:26:14.499Z,99.90
2022-09-30T06:28:44.667Z,99.90
2022-09-30T06:31:12.546Z,99.90
2022-09-30T06:33:39.771Z,99.90
2022-09-30T06:36:07.158Z,99.90
2022-09-30T06:38:37.512Z,99.90
2022-09-30T06:41:05.400Z,99.90
2022-09-30T06:43:36.963Z,99.90
2022-09-30T06:46:17.736Z,99.90
2022-09-30T06:48:49.103Z,99.90
2022-09-30T06:51:17.002Z,99.90
2022-09-30T06:53:43.922Z,99.90
2022-09-30T06:56:14.301Z,99.90
2022-09-30T06:58:47.227Z,99.90
2022-09-30T07:01:15.980Z,99.90
2022-09-30T07:03:45.096Z,99.90
2022-09-30T07:06:15.995Z,99.90
2022-09-30T07:08:43.062Z,99.90
2022-09-30T07:11:14.956Z,99.90
2022-09-30T07:13:47.194Z,99.90
2022-09-30T07:16:17.823Z,99.90
2022-09-30T07:18:45.641Z,99.90
2022-09-30T07:21:15.828Z,99.90
2022-09-30T07:23:47.562Z,99.90
2022-09-30T07:26:16.429Z,99.90
2022-09-30T07:28:43.738Z,99.90
2022-09-30T07:31:31.941Z,99.90
2022-09-30T07:34:16.574Z,99.90
2022-09-30T07:36:43.544Z,99.90
2022-09-30T07:39:10.976Z,99.90
2022-09-30T07:41:41.930Z,99.90
2022-09-30T07:44:16.533Z,99.90
2022-09-30T07:46:44.931Z,99.90
2022-09-30T07:49:15.170Z,99.90
2022-09-30T07:51:46.732Z,99.90
2022-09-30T07:54:16.235Z,99.90
2022-09-30T07:59:34.542Z,99.90
2022-09-30T08:02:07.692Z,99.90
2022-09-30T08:04:35.011Z,99.90
2022-09-30T08:07:04.686Z,99.90
2022-09-30T08:09:34.939Z,99.90
2022-09-30T08:12:03.844Z,99.90
2022-09-30T08:14:31.267Z,99.90
2022-09-30T08:17:00.174Z,99.90
2022-09-30T08:19:28.926Z,99.90
2022-09-30T08:21:57.002Z,99.90
2022-09-30T08:24:27.940Z,99.90
2022-09-30T08:26:58.088Z,99.90
2022-09-30T08:32:12.167Z,99.90
2022-09-30T08:34:39.209Z,99.90
2022-09-30T08:37:10.406Z,99.90
2022-09-30T08:39:39.355Z,99.90
2022-09-30T08:42:49.167Z,99.90
2022-09-30T08:45:30.330Z,99.90
2022-09-30T08:48:11.817Z,99.90
2022-09-30T08:50:55.250Z,99.90
2022-09-30T08:53:28.266Z,99.90
2022-09-30T08:56:02.709Z,99.90
2022-09-30T08:58:33.391Z,99.90
2022-09-30T09:01:15.013Z,99.90
2022-09-30T09:03:49.363Z,99.90
2022-09-30T09:06:27.264Z,99.90
2022-09-30T09:09:32.654Z,99.90
2022-09-30T09:12:14.967Z,99.90
2022-09-30T09:15:02.510Z,99.90
2022-09-30T09:18:21.505Z,99.90
2022-09-30T09:20:54.931Z,99.90
2022-09-30T09:23:25.077Z,99.90
2022-09-30T09:25:55.695Z,99.90
2022-09-30T09:28:35.449Z,99.90
2022-09-30T09:31:14.070Z,99.90
2022-09-30T09:33:41.074Z,99.90
2022-09-30T09:36:36.650Z,99.90
2022-09-30T09:39:41.059Z,99.90
2022-09-30T09:42:34.373Z,99.90
2022-09-30T09:45:05.542Z,99.90
2022-09-30T09:47:35.164Z,99.90
2022-09-30T09:50:14.908Z,99.90
2022-09-30T09:53:21.072Z,99.90
2022-09-30T09:55:50.104Z,99.90
2022-09-30T09:58:17.451Z,99.90
2022-09-30T10:00:48.606Z,99.90
2022-09-30T10:03:24.526Z,99.90
2022-09-30T10:06:06.619Z,99.90
2022-09-30T10:08:36.398Z,99.90
2022-09-30T10:11:06.439Z,99.90
2022-09-30T10:13:42.257Z,99.90
2022-09-30T10:16:43.032Z,99.90
2022-09-30T10:19:21.939Z,99.90
2022-09-30T10:22:19.454Z,99.90
2022-09-30T10:24:48.564Z,99.90
2022-09-30T10:27:28.623Z,99.90
2022-09-30T10:30:01.732Z,99.90
2022-09-30T10:32:30.507Z,99.90
2022-09-30T10:35:04.709Z,99.90
2022-09-30T10:37:31.716Z,99.90
2022-09-30T10:40:03.507Z,99.90
2022-09-30T10:42:33.041Z,99.90
2022-09-30T10:45:06.866Z,99.90
2022-09-30T10:47:37.238Z,99.90
2022-09-30T10:50:08.788Z,99.90
2022-09-30T10:52:40.183Z,99.90
2022-09-30T10:55:18.701Z,99.90
2022-09-30T10:57:50.647Z,99.90
2022-09-30T11:00:22.131Z,99.90
2022-09-30T11:02:58.722Z,99.90
2022-09-30T11:05:31.502Z,99.90
2022-09-30T11:08:09.267Z,99.90
2022-09-30T11:10:44.606Z,99.90
2022-09-30T11:13:24.319Z,99.90
2022-09-30T11:16:03.788Z,99.90
2022-09-30T11:18:43.158Z,99.90
2022-09-30T11:21:19.305Z,99.90
2022-09-30T11:23:52.417Z,99.90
2022-09-30T11:26:34.758Z,99.90
2022-09-30T11:29:18.634Z,99.60
2022-09-30T11:32:02.431Z,99.90
2022-09-30T11:34:47.092Z,99.90
2022-09-30T11:37:27.979Z,99.50
2022-09-30T11:40:31.279Z,99.60
2022-09-30T11:43:22.575Z,99.70
2022-09-30T11:46:23.920Z,99.50
2022-09-30T11:49:28.779Z,99.60
2022-09-30T11:52:20.470Z,99.50
2022-09-30T11:55:26.604Z,99.80
2022-09-30T11:58:11.985Z,99.40
2022-09-30T12:00:55.502Z,99.60
2022-09-30T12:03:35.180Z,99.50
2022-09-30T12:06:07.899Z,99.60
2022-09-30T12:08:41.052Z,99.40
2022-09-30T12:11:16.383Z,99.40
2022-09-30T12:13:53.786Z,99.40
2022-09-30T12:16:25.499Z,99.30
2022-09-30T12:18:58.288Z,99.00
2022-09-30T12:21:33.074Z,98.90
2022-09-30T12:24:11.441Z,98.60
2022-09-30T12:26:40.085Z,98.70
2022-09-30T12:29:36.048Z,98.90
2022-09-30T12:32:49.807Z,98.70
2022-09-30T12:36:09.868Z,98.60
2022-09-30T12:38:58.250Z,98.20
2022-09-30T12:41:49.939Z,97.80
2022-09-30T12:45:02.809Z,97.20
2022-09-30T12:47:37.299Z,97.70
2022-09-30T12:50:13.464Z,97.50
2022-09-30T12:52:40.500Z,97.20
2022-09-30T12:55:28.081Z,96.50
2022-09-30T12:58:20.741Z,96.10
2022-09-30T13:01:08.416Z,96.30
2022-09-30T13:04:16.907Z,96.20
2022-09-30T13:07:17.087Z,95.60
2022-09-30T13:10:26.000Z,95.90
2022-09-30T13:13:24.813Z,96.10
2022-09-30T13:15:52.704Z,96.40
2022-09-30T13:19:21.090Z,96.20
2022-09-30T13:21:52.023Z,96.20
2022-09-30T13:25:14.462Z,95.60
2022-09-30T13:27:46.849Z,95.00
2022-09-30T13:30:40.349Z,95.00
2022-09-30T13:33:42.288Z,95.30
2022-09-30T13:36:31.798Z,95.40
2022-09-30T13:39:21.920Z,95.40
2022-09-30T13:42:14.984Z,95.30
2022-09-30T13:45:02.301Z,94.80
2022-09-30T13:47:35.918Z,94.50
2022-09-30T13:50:16.057Z,94.10
2022-09-30T13:52:46.074Z,94.30
2022-09-30T13:55:28.443Z,94.70
2022-09-30T13:58:16.364Z,94.40
2022-09-30T14:00:55.636Z,94.70
2022-09-30T14:04:04.310Z,94.90
2022-09-30T14:06:47.596Z,95.00
2022-09-30T14:09:41.053Z,94.80
2022-09-30T14:12:44.867Z,94.70
2022-09-30T14:16:06.144Z,94.90
2022-09-30T14:19:11.260Z,94.70
2022-09-30T14:21:43.394Z,95.00
2022-09-30T14:24:35.110Z,95.00
2022-09-30T14:27:32.040Z,95.10
2022-09-30T14:30:09.070Z,95.00
2022-09-30T14:33:02.875Z,94.80
2022-09-30T14:35:37.548Z,94.70
2022-09-30T14:38:26.002Z,93.90
2022-09-30T14:40:57.217Z,93.70
2022-09-30T14:43:30.229Z,93.50
2022-09-30T14:45:59.573Z,93.60
2022-09-30T14:48:38.762Z,93.60
2022-09-30T14:51:11.863Z,93.60
2022-09-30T14:53:43.371Z,93.30
2022-09-30T14:56:23.509Z,93.50
2022-09-30T14:58:52.859Z,93.50
2022-09-30T15:01:26.047Z,93.00
2022-09-30T15:03:58.112Z,93.30
2022-09-30T15:06:28.428Z,93.40
2022-09-30T15:09:06.170Z,93.40
2022-09-30T15:11:40.041Z,93.20
2022-09-30T15:14:15.203Z,93.10
2022-09-30T15:16:47.608Z,93.20
2022-09-30T15:19:21.583Z,93.00
2022-09-30T15:21:53.510Z,93.20
2022-09-30T15:24:22.992Z,93.40
2022-09-30T15:26:53.183Z,93.50
2022-09-30T15:29:20.086Z,93.50
2022-09-30T15:31:52.060Z,93.30
2022-09-30T15:34:24.178Z,93.50
2022-09-30T15:36:59.772Z,93.70
2022-09-30T15:39:57.300Z,93.60
2022-09-30T15:42:36.356Z,93.70
2022-09-30T15:45:04.516Z,94.00
2022-09-30T15:47:31.588Z,93.80
2022-09-30T15:50:00.383Z,93.60
2022-09-30T15:52:36.556Z,93.70
2022-09-30T15:55:38.104Z,93.70
2022-09-30T15:58:05.503Z,93.70
2022-09-30T16:00:37.049Z,93.70
2022-09-30T16:03:22.150Z,93.90
2022-09-30T16:05:54.199Z,94.20
2022-09-30T16:08:25.289Z,94.50
2022-09-30T16:10:57.207Z,94.60
2022-09-30T16:13:30.058Z,94.80
2022-09-30T16:15:58.483Z,94.80
2022-09-30T16:18:32.726Z,94.90
2022-09-30T16:21:05.653Z,94.80
2022-09-30T16:23:38.524Z,95.00
2022-09-30T16:26:28.209Z,94.90
2022-09-30T16:29:08.231Z,94.80
2022-09-30T16:31:37.829Z,95.00
2022-09-30T16:34:05.154Z,95.30
2022-09-30T16:36:34.229Z,95.50
2022-09-30T16:39:01.414Z,95.80
2022-09-30T16:41:34.219Z,96.00
2022-09-30T16:44:01.735Z,96.20
2022-09-30T16:46:37.845Z,96.40
2022-09-30T16:49:14.076Z,96.40
2022-09-30T16:51:42.933Z,96.60
2022-09-30T16:54:10.356Z,96.70
2022-09-30T16:56:37.858Z,96.80
2022-09-30T16:59:09.908Z,97.00
2022-09-30T17:01:39.685Z,96.90
2022-09-30T17:04:06.675Z,97.00
2022-09-30T17:06:35.063Z,97.10
2022-09-30T17:09:04.506Z,97.40
2022-09-30T17:11:33.546Z,97.40
2022-09-30T17:14:02.968Z,97.60
2022-09-30T17:16:31.871Z,97.70
2022-09-30T17:18:59.003Z,97.80
2022-09-30T17:21:27.582Z,98.50
2022-09-30T17:23:55.624Z,99.90
2022-09-30T17:26:24.181Z,99.90
2022-09-30T17:28:51.510Z,99.90
2022-09-30T17:31:18.531Z,99.90
2022-09-30T17:33:45.510Z,99.90
2022-09-30T17:36:13.653Z,99.90
2022-09-30T17:38:40.935Z,99.90
2022-09-30T17:41:29.226Z,99.90
2022-09-30T17:44:02.495Z,99.90
2022-09-30T17:46:41.490Z,99.90
2022-09-30T17:49:09.046Z,99.90
2022-09-30T17:51:37.733Z,99.90
2022-09-30T17:54:06.612Z,99.90
2022-09-30T17:56:34.545Z,99.90
2022-09-30T17:59:02.918Z,99.90
2022-09-30T18:01:31.052Z,99.90
2022-09-30T18:03:59.353Z,99.90
2022-09-30T18:06:29.522Z,99.90
2022-09-30T18:08:56.606Z,99.90
2022-09-30T18:11:26.070Z,99.90
2022-09-30T18:13:58.189Z,99.90
2022-09-30T18:16:30.631Z,99.90
2022-09-30T18:19:00.579Z,99.90
2022-09-30T18:21:28.542Z,99.90
2022-09-30T18:23:57.365Z,99.90
2022-09-30T18:26:25.811Z,99.90
2022-09-30T18:28:53.004Z,99.90
2022-09-30T18:31:29.044Z,99.90
2022-09-30T18:33:58.756Z,99.90
2022-09-30T18:36:37.302Z,99.90
2022-09-30T18:39:04.854Z,99.90
2022-09-30T18:41:33.813Z,99.90
2022-09-30T18:44:03.031Z,99.90
2022-09-30T18:46:31.826Z,99.90
2022-09-30T18:49:00.266Z,99.90
2022-09-30T18:51:27.524Z,99.90
2022-09-30T18:53:57.662Z,99.90
2022-09-30T18:56:26.791Z,99.90
2022-09-30T18:58:53.835Z,99.90
2022-09-30T19:01:21.975Z,99.90
2022-09-30T19:03:49.585Z,99.90
2022-09-30T19:06:17.869Z,99.90
2022-09-30T19:08:44.850Z,99.90
2022-09-30T19:11:14.738Z,99.90
2022-09-30T19:13:42.996Z,99.90
2022-09-30T19:16:11.109Z,99.90
2022-09-30T19:18:39.289Z,99.90
2022-09-30T19:21:10.527Z,99.90
2022-09-30T19:23:39.694Z,99.90
2022-09-30T19:26:10.843Z,99.90
2022-09-30T19:28:38.125Z,99.90
2022-09-30T19:31:10.473Z,99.90
2022-09-30T19:33:42.428Z,99.90
2022-09-30T19:36:15.308Z,99.90
2022-09-30T19:38:45.409Z,99.90
2022-09-30T19:41:15.847Z,99.90
2022-09-30T19:43:46.469Z,99.90
2022-09-30T19:46:13.495Z,99.90
2022-09-30T19:48:44.053Z,99.90
2022-09-30T19:51:13.079Z,99.90
2022-09-30T19:54:02.031Z,99.90
2022-09-30T19:56:33.776Z,99.90
2022-09-30T19:59:00.845Z,99.90
2022-09-30T20:01:35.016Z,99.90
2022-09-30T20:04:05.264Z,99.90
2022-09-30T20:06:33.761Z,99.90
2022-09-30T20:09:06.189Z,99.90
2022-09-30T20:11:37.074Z,99.90
2022-09-30T20:14:25.879Z,99.90
2022-09-30T20:16:55.037Z,99.90
2022-09-30T20:19:23.186Z,99.90
2022-09-30T20:21:52.141Z,99.90
2022-09-30T20:24:21.361Z,99.90
2022-09-30T20:26:50.250Z,99.90
2022-09-30T20:29:20.716Z,99.90
2022-09-30T20:31:49.139Z,99.90
2022-09-30T20:34:18.223Z,99.90
2022-09-30T20:36:45.269Z,99.90
2022-09-30T20:39:12.885Z,99.90
2022-09-30T20:41:41.717Z,99.90
2022-09-30T20:44:15.588Z,99.90
2022-09-30T20:46:43.204Z,99.90
2022-09-30T20:49:10.299Z,99.90
2022-09-30T20:51:37.487Z,99.90
2022-09-30T20:54:04.621Z,99.90
2022-09-30T20:56:44.421Z,99.90
2022-09-30T20:59:18.413Z,99.90
2022-09-30T21:01:45.523Z,99.90
2022-09-30T21:04:12.572Z,99.90
2022-09-30T21:06:39.550Z,99.90
2022-09-30T21:09:06.670Z,99.90
2022-09-30T21:11:34.032Z,99.90
2022-09-30T21:14:01.845Z,99.90
2022-09-30T21:16:31.207Z,99.90
2022-09-30T21:18:58.164Z,99.90
2022-09-30T21:21:26.748Z,99.90
2022-09-30T21:23:59.220Z,99.90
2022-09-30T21:26:27.347Z,99.90
2022-09-30T21:28:54.603Z,99.90
2022-09-30T21:31:24.771Z,99.90
2022-09-30T21:33:55.351Z,99.90
2022-09-30T21:36:23.292Z,99.90
2022-09-30T21:38:51.619Z,99.90
2022-09-30T21:41:19.853Z,99.90
2022-09-30T21:43:47.199Z,99.90
2022-09-30T21:46:18.644Z,99.90
2022-09-30T21:48:46.137Z,99.90
2022-09-30T21:51:14.698Z,99.90
2022-09-30T21:53:45.063Z,99.90
2022-09-30T21:56:19.239Z,99.90
2022-09-30T21:58:50.328Z,99.90
2022-09-30T22:01:17.296Z,99.90
2022-09-30T22:03:44.343Z,99.90
2022-09-30T22:06:19.866Z,99.90
2022-09-30T22:08:46.957Z,99.90
2022-09-30T22:11:22.479Z,99.90
2022-09-30T22:13:55.188Z,99.90
2022-09-30T22:16:25.954Z,99.90
2022-09-30T22:19:01.363Z,99.90
2022-09-30T22:21:33.477Z,99.90
2022-09-30T22:24:03.091Z,99.90
2022-09-30T22:26:31.441Z,99.90
2022-09-30T22:29:00.974Z,99.90
2022-09-30T22:31:30.989Z,99.90
2022-09-30T22:34:19.679Z,99.90
2022-09-30T22:37:06.669Z,99.90
2022-09-30T22:39:34.159Z,99.90
2022-09-30T22:42:11.577Z,99.90
2022-09-30T22:44:39.122Z,99.90
2022-09-30T22:47:09.268Z,99.90
2022-09-30T22:49:36.421Z,99.90
2022-09-30T22:52:06.049Z,99.90
2022-09-30T22:54:35.388Z,99.90
2022-09-30T22:57:03.687Z,99.90
2022-09-30T22:59:33.311Z,99.90
2022-09-30T23:02:00.309Z,99.90
2022-09-30T23:04:32.475Z,99.90
2022-09-30T23:07:00.478Z,99.90
2022-09-30T23:09:29.351Z,99.90
2022-09-30T23:11:57.093Z,99.90
2022-09-30T23:14:24.206Z,99.90
2022-09-30T23:16:54.343Z,99.90
2022-09-30T23:19:21.653Z,99.90
2022-09-30T23:21:48.616Z,99.90
2022-09-30T23:24:15.806Z,99.90
2022-09-30T23:26:44.104Z,99.90
2022-09-30T23:29:13.194Z,99.90
2022-09-30T23:31:41.043Z,99.90
2022-09-30T23:34:08.180Z,99.90
2022-09-30T23:36:37.310Z,99.90
2022-09-30T23:39:09.456Z,99.90
2022-09-30T23:41:36.786Z,99.90
2022-09-30T23:44:05.570Z,99.90
2022-09-30T23:46:33.064Z,99.90
2022-09-30T23:49:00.210Z,99.90
2022-09-30T23:51:27.413Z,99.90
2022-09-30T23:53:54.397Z,99.90
2022-09-30T23:56:21.713Z,99.90
2022-09-30T23:58:50.482Z,99.90
